createdAt,value
2023-02-03T00:00:07.149Z,3.78
2023-02-03T00:04:13.333Z,2.83
2023-02-03T00:08:17.540Z,3.03
2023-02-03T00:12:19.159Z,2.95
2023-02-03T00:16:20.750Z,3.75
2023-02-03T00:20:22.345Z,3.05
2023-02-03T00:24:23.894Z,2.80
2023-02-03T00:28:28.182Z,3.65
2023-02-03T00:32:30.200Z,2.83
2023-02-03T00:36:31.923Z,3.00
2023-02-03T00:40:33.722Z,3.15
2023-02-03T00:44:36.488Z,3.03
2023-02-03T00:48:38.238Z,3.50
2023-02-03T00:52:40.125Z,3.40
2023-02-03T00:56:41.809Z,2.75
2023-02-03T01:00:43.524Z,3.17
2023-02-03T01:04:45.260Z,3.17
2023-02-03T01:08:47.647Z,3.20
2023-02-03T01:12:49.203Z,2.53
2023-02-03T01:16:50.819Z,2.90
2023-02-03T01:20:52.333Z,2.70
2023-02-03T01:24:53.825Z,3.10
2023-02-03T01:28:58.303Z,2.28
2023-02-03T01:32:59.812Z,2.33
2023-02-03T01:37:01.325Z,1.65
2023-02-03T01:41:06.468Z,1.75
2023-02-03T01:45:12.437Z,2.15
2023-02-03T01:49:22.896Z,1.63
2023-02-03T01:53:24.468Z,1.90
2023-02-03T01:57:34.962Z,3.00
2023-02-03T02:01:37.289Z,1.60
2023-02-03T02:05:46.279Z,1.77
2023-02-03T02:09:48.836Z,1.88
2023-02-03T02:13:53.339Z,1.67
2023-02-03T02:18:08.481Z,1.70
2023-02-03T02:22:30.435Z,1.95
2023-02-03T02:26:49.155Z,1.92
2023-02-03T02:31:34.312Z,2.28
2023-02-03T02:35:56.653Z,2.15
2023-02-03T02:40:16.920Z,2.53
2023-02-03T02:44:25.737Z,2.70
2023-02-03T02:48:44.772Z,3.00
2023-02-03T02:52:49.914Z,2.20
2023-02-03T02:56:56.401Z,2.70
2023-02-03T03:00:58.706Z,2.58
2023-02-03T03:05:01.471Z,3.53
2023-02-03T03:09:10.391Z,2.85
2023-02-03T03:13:20.287Z,2.80
2023-02-03T03:17:28.332Z,3.50
2023-02-03T03:21:37.663Z,2.45
2023-02-03T03:25:45.895Z,2.95
2023-02-03T03:29:53.422Z,2.15
2023-02-03T03:33:55.314Z,2.83
2023-02-03T03:38:05.933Z,2.35
2023-02-03T03:42:34.088Z,2.08
2023-02-03T03:46:43.314Z,2.45
2023-02-03T03:50:51.906Z,2.08
2023-02-03T03:54:55.602Z,2.50
2023-02-03T03:58:59.833Z,2.50
2023-02-03T04:03:07.029Z,2.85
2023-02-03T04:07:08.548Z,2.30
2023-02-03T04:11:10.131Z,2.47
2023-02-03T04:15:11.622Z,2.58
2023-02-03T04:19:13.101Z,3.33
2023-02-03T04:23:14.621Z,3.75
2023-02-03T04:27:16.143Z,3.85
2023-02-03T04:31:17.803Z,3.70
2023-02-03T04:35:19.751Z,3.05
2023-02-03T04:39:21.159Z,3.60
2023-02-03T04:43:22.672Z,3.03
2023-02-03T04:47:24.282Z,3.05
2023-02-03T04:51:25.863Z,3.42
2023-02-03T04:55:28.593Z,4.50
2023-02-03T04:59:30.129Z,3.80
2023-02-03T05:03:31.650Z,4.20
2023-02-03T05:07:33.155Z,3.95
2023-02-03T05:11:34.624Z,4.55
2023-02-03T05:15:36.170Z,4.13
2023-02-03T05:19:37.758Z,4.38
2023-02-03T05:23:39.287Z,4.03
2023-02-03T05:27:41.800Z,3.90
2023-02-03T05:31:43.587Z,3.80
2023-02-03T05:35:45.164Z,3.90
2023-02-03T05:39:46.666Z,4.20
2023-02-03T05:43:48.172Z,4.00
2023-02-03T05:47:49.691Z,4.75
2023-02-03T05:51:53.105Z,4.53
2023-02-03T05:55:55.013Z,4.68
2023-02-03T05:59:56.573Z,4.35
2023-02-03T06:03:58.229Z,3.72
2023-02-03T06:08:01.097Z,4.13
2023-02-03T06:12:02.648Z,4.57
2023-02-03T06:16:05.070Z,4.25
2023-02-03T06:20:08.575Z,4.80
2023-02-03T06:24:10.901Z,4.03
2023-02-03T06:28:12.472Z,4.75
2023-02-03T06:32:14.025Z,4.90
2023-02-03T06:36:15.994Z,4.05
2023-02-03T06:40:18.666Z,3.50
2023-02-03T06:44:20.157Z,4.05
2023-02-03T06:48:56.060Z,3.90
2023-02-03T06:52:57.514Z,3.75
2023-02-03T06:56:59.011Z,4.18
2023-02-03T07:01:51.699Z,3.78
2023-02-03T07:06:02.290Z,3.47
2023-02-03T07:15:32.575Z,3.28
2023-02-03T07:19:34.521Z,3.33
2023-02-03T07:23:36.535Z,3.42
2023-02-03T07:27:38.450Z,3.45
2023-02-03T07:31:40.584Z,3.17
2023-02-03T07:35:42.196Z,3.00
2023-02-03T07:45:31.153Z,2.63
2023-02-03T07:49:58.179Z,3.08
2023-02-03T07:59:27.946Z,3.22
2023-02-03T08:04:19.755Z,2.80
2023-02-03T08:08:21.557Z,3.10
2023-02-03T08:12:23.058Z,3.47
2023-02-03T08:16:49.770Z,2.75
2023-02-03T08:20:51.306Z,2.50
2023-02-03T08:24:53.316Z,2.80
2023-02-03T08:28:54.782Z,2.15
2023-02-03T08:33:46.688Z,2.65
2023-02-03T08:38:38.493Z,3.03
2023-02-03T08:42:40.356Z,2.28
2023-02-03T08:46:44.202Z,1.75
2023-02-03T08:56:46.220Z,2.20
2023-02-03T09:01:22.431Z,1.85
2023-02-03T09:11:56.989Z,2.20
2023-02-03T09:16:00.646Z,2.50
2023-02-03T09:20:31.639Z,2.70
2023-02-03T09:25:23.434Z,2.60
2023-02-03T09:29:25.185Z,2.55
2023-02-03T09:34:10.875Z,3.13
2023-02-03T09:38:14.496Z,2.22
2023-02-03T09:42:54.533Z,2.20
2023-02-03T09:47:03.876Z,2.45
2023-02-03T09:51:14.103Z,2.78
2023-02-03T09:55:45.416Z,3.08
2023-02-03T10:00:30.418Z,2.55
2023-02-03T10:04:44.000Z,2.70
2023-02-03T10:09:07.328Z,2.80
2023-02-03T10:14:08.683Z,3.00
2023-02-03T10:18:17.018Z,2.38
2023-02-03T10:22:28.375Z,2.85
2023-02-03T10:26:57.944Z,2.80
2023-02-03T10:31:04.540Z,3.10
2023-02-03T10:35:12.592Z,2.83
2023-02-03T10:39:45.816Z,2.65
2023-02-03T10:43:56.061Z,2.58
2023-02-03T10:48:24.929Z,3.08
2023-02-03T10:52:51.431Z,2.67
2023-02-03T10:57:43.441Z,2.60
2023-02-03T11:01:49.092Z,2.50
2023-02-03T11:06:15.635Z,2.22
2023-02-03T11:10:29.807Z,2.22
2023-02-03T11:14:41.187Z,2.42
2023-02-03T11:19:02.690Z,2.10
2023-02-03T11:23:23.462Z,2.22
2023-02-03T11:27:28.441Z,2.42
2023-02-03T11:31:34.014Z,2.45
2023-02-03T11:35:38.027Z,2.33
2023-02-03T11:40:14.772Z,2.83
2023-02-03T11:45:07.451Z,2.22
2023-02-03T11:49:28.216Z,2.13
2023-02-03T11:53:57.250Z,2.13
2023-02-03T11:58:50.485Z,2.05
2023-02-03T12:03:20.623Z,2.00
2023-02-03T12:07:48.450Z,1.70
2023-02-03T12:12:43.807Z,1.55
2023-02-03T12:17:11.132Z,2.08
2023-02-03T12:21:49.853Z,1.30
2023-02-03T12:26:04.364Z,1.33
2023-02-03T12:30:37.567Z,1.25
2023-02-03T12:35:17.242Z,1.08
2023-02-03T12:39:27.930Z,1.10
2023-02-03T12:43:49.380Z,1.23
2023-02-03T12:47:57.944Z,1.27
2023-02-03T12:52:21.484Z,1.08
2023-02-03T12:56:30.893Z,1.15
2023-02-03T13:00:45.421Z,1.20
2023-02-03T13:04:57.199Z,1.70
2023-02-03T13:09:31.038Z,1.42
2023-02-03T13:14:22.718Z,1.75
2023-02-03T13:18:29.462Z,2.25
2023-02-03T13:22:32.211Z,1.13
2023-02-03T13:26:59.127Z,1.35
2023-02-03T13:31:16.379Z,1.63
2023-02-03T13:35:33.952Z,1.48
2023-02-03T13:39:42.744Z,1.10
2023-02-03T13:44:12.700Z,1.40
2023-02-03T13:48:33.583Z,1.40
2023-02-03T13:52:41.484Z,1.20
2023-02-03T13:57:21.887Z,1.75
2023-02-03T14:01:42.713Z,1.42
2023-02-03T14:05:50.499Z,1.30
2023-02-03T14:15:32.101Z,1.40
2023-02-03T14:19:33.828Z,1.27
2023-02-03T14:23:43.549Z,2.72
2023-02-03T14:28:12.127Z,2.10
2023-02-03T14:33:04.466Z,1.38
2023-02-03T14:37:27.687Z,1.85
2023-02-03T14:41:37.649Z,1.88
2023-02-03T14:46:06.791Z,1.40
2023-02-03T14:50:17.630Z,1.30
2023-02-03T14:55:08.223Z,1.38
2023-02-03T14:59:11.135Z,2.15
2023-02-03T15:03:15.228Z,1.80
2023-02-03T15:07:38.940Z,1.70
2023-02-03T15:11:44.666Z,1.85
2023-02-03T15:15:50.091Z,1.50
2023-02-03T15:19:51.939Z,2.03
2023-02-03T15:23:54.259Z,1.80
2023-02-03T15:28:11.943Z,1.60
2023-02-03T15:32:35.962Z,1.60
2023-02-03T15:36:44.341Z,2.15
2023-02-03T15:40:54.429Z,2.10
2023-02-03T15:45:17.452Z,2.28
2023-02-03T15:49:24.587Z,2.13
2023-02-03T15:53:46.702Z,2.15
2023-02-03T15:57:50.645Z,2.20
2023-02-03T16:01:53.475Z,2.03
2023-02-03T16:05:55.403Z,2.60
2023-02-03T16:09:59.256Z,2.67
2023-02-03T16:14:06.988Z,2.28
2023-02-03T16:18:17.696Z,2.55
2023-02-03T16:22:37.686Z,3.03
2023-02-03T16:26:39.222Z,2.03
2023-02-03T16:31:11.526Z,2.78
2023-02-03T16:35:31.939Z,2.08
2023-02-03T16:39:52.235Z,2.30
2023-02-03T16:44:12.292Z,1.50
2023-02-03T16:48:32.634Z,2.00
2023-02-03T16:52:34.073Z,2.58
2023-02-03T16:56:35.552Z,2.10
2023-02-03T17:00:41.271Z,2.10
2023-02-03T17:04:42.896Z,1.70
2023-02-03T17:08:44.370Z,2.58
2023-02-03T17:12:45.880Z,2.65
2023-02-03T17:16:47.531Z,2.10
2023-02-03T17:20:49.487Z,1.75
2023-02-03T17:24:51.111Z,1.42
2023-02-03T17:28:52.597Z,2.13
2023-02-03T17:32:54.134Z,2.25
2023-02-03T17:36:55.854Z,2.72
2023-02-03T17:53:56.533Z,2.15
2023-02-03T17:57:58.248Z,2.33
2023-02-03T18:01:59.710Z,1.95
2023-02-03T18:06:04.153Z,2.80
2023-02-03T18:10:05.985Z,2.60
2023-02-03T18:14:10.436Z,1.90
2023-02-03T18:18:12.091Z,2.20
2023-02-03T18:22:14.411Z,1.75
2023-02-03T18:26:16.141Z,2.20
2023-02-03T18:30:18.555Z,2.40
2023-02-03T18:34:20.126Z,2.42
2023-02-03T18:38:21.823Z,1.98
2023-02-03T18:42:23.727Z,1.75
2023-02-03T18:46:28.389Z,1.67
2023-02-03T18:50:30.288Z,2.30
2023-02-03T18:54:32.687Z,1.98
2023-02-03T18:58:36.542Z,1.77
2023-02-03T19:02:38.264Z,2.03
2023-02-03T19:06:45.246Z,1.70
2023-02-03T19:10:50.013Z,2.97
2023-02-03T19:14:52.153Z,1.45
2023-02-03T19:18:53.999Z,1.80
2023-02-03T19:22:56.673Z,2.53
2023-02-03T19:26:58.217Z,1.95
2023-02-03T19:31:11.980Z,1.98
2023-02-03T19:35:15.327Z,2.30
2023-02-03T19:39:18.543Z,2.45
2023-02-03T19:43:20.221Z,2.47
2023-02-03T19:47:21.832Z,2.20
2023-02-03T19:51:24.223Z,2.42
2023-02-03T19:55:30.477Z,1.95
2023-02-03T19:59:31.995Z,2.17
2023-02-03T20:03:33.546Z,2.55
2023-02-03T20:07:35.153Z,1.55
2023-02-03T20:11:36.886Z,1.70
2023-02-03T20:15:38.553Z,1.65
2023-02-03T20:19:40.199Z,2.58
2023-02-03T20:23:41.760Z,2.83
2023-02-03T20:27:43.443Z,1.88
2023-02-03T20:31:45.174Z,2.20
2023-02-03T20:35:46.710Z,2.30
2023-02-03T20:39:48.250Z,2.20
2023-02-03T20:43:49.795Z,2.67
2023-02-03T20:47:51.644Z,2.33
2023-02-03T20:51:53.220Z,2.70
2023-02-03T20:55:58.822Z,2.72
2023-02-03T21:00:00.344Z,2.95
2023-02-03T21:04:20.679Z,2.10
2023-02-03T21:08:22.730Z,2.45
2023-02-03T21:12:24.736Z,3.83
2023-02-03T21:16:35.084Z,2.17
2023-02-03T21:20:37.222Z,2.25
2023-02-03T21:24:39.977Z,2.40
2023-02-03T21:28:41.707Z,2.85
2023-02-03T21:32:44.014Z,1.90
2023-02-03T21:36:45.599Z,2.05
2023-02-03T21:40:47.272Z,2.10
2023-02-03T21:44:48.838Z,2.47
2023-02-03T21:48:52.885Z,1.75
2023-02-03T21:52:54.613Z,3.72
2023-02-03T21:56:57.820Z,2.00
2023-02-03T22:01:02.145Z,2.08
2023-02-03T22:05:04.868Z,1.77
2023-02-03T22:09:06.828Z,2.20
2023-02-03T22:13:08.361Z,1.90
2023-02-03T22:17:12.527Z,1.80
2023-02-03T22:21:16.122Z,2.65
2023-02-03T22:25:17.598Z,1.85
2023-02-03T22:29:19.286Z,2.45
2023-02-03T22:33:20.885Z,2.47
2023-02-03T22:37:22.470Z,2.40
2023-02-03T22:41:24.134Z,2.47
2023-02-03T22:45:25.633Z,1.80
2023-02-03T22:49:27.207Z,2.08
2023-02-03T22:53:29.530Z,2.25
2023-02-03T22:57:31.102Z,1.50
2023-02-03T23:01:32.659Z,1.60
2023-02-03T23:05:34.382Z,2.03
2023-02-03T23:09:35.868Z,1.58
2023-02-03T23:13:37.550Z,1.48
2023-02-03T23:17:39.526Z,2.10
2023-02-03T23:21:41.210Z,2.17
2023-02-03T23:25:42.684Z,1.45
2023-02-03T23:29:44.257Z,1.30
2023-02-03T23:34:04.367Z,2.05
2023-02-03T23:38:05.894Z,1.77
2023-02-03T23:42:07.374Z,1.30
2023-02-03T23:46:09.180Z,1.45
2023-02-03T23:50:13.194Z,1.50
2023-02-03T23:54:14.643Z,1.40
2023-02-03T23:58:16.175Z,1.58
